Detalii statie AGROKAISER STANESTI [0000198D]

Toti senzorii

Date Temperatura solului [C]Precipitatii [mm]Voltaj baterie [mV]Leaf Wetness [Min]HC Air temperature [C]HC Relative humidity [%]Punctul de roua [C]
medieminmaxsumaultimatimpmedieminmaxmediemediemin
2018-02-23 13:00:00 0 7294 -0.07 -0.19 0.14 100 0 0
2018-02-23 14:00:00 0 7284 0.37 0.15 0.52 100 0.3 0.1
2018-02-23 15:00:00 0 7274 0.85 0.6 1.02 100 0.8 0.6
2018-02-23 16:00:00 0 7274 1.06 0.95 1.14 100 1 0.9
2018-02-23 17:00:00 0.6 7148 1.09 1.03 1.16 100 1 1
2018-02-23 18:00:00 0.4 6952 0.82 0.73 1 100 0.7 0.7
2018-02-23 19:00:00 0 6854 0.75 0.69 0.85 100 0.7 0.6
2018-02-23 20:00:00 0 6816 0.83 0.81 0.84 100 0.8 0.8
2018-02-23 21:00:00 0 6806 0.72 0.6 0.79 100 0.6 0.6
2018-02-23 22:00:00 0 6796 0.46 0.4 0.56 100 0.4 0.4
2018-02-23 23:00:00 0 6786 0.38 0.35 0.41 100 0.3 0.3
2018-02-24 00:00:00 0 6786 0.38 0.35 0.42 100 0.3 0.3
2018-02-24 01:00:00 0 6766 0.36 0.32 0.43 100 0.3 0.3
2018-02-24 02:00:00 0 6766 0.39 0.36 0.43 100 0.3 0.3
2018-02-24 03:00:00 0 6756 0.35 0.3 0.41 100 0.3 0.3
2018-02-24 04:00:00 0 6756 0.22 0.19 0.29 100 0.1 0.1
2018-02-24 05:00:00 0 6748 0.21 0.18 0.24 100 0.1 0.1
2018-02-24 06:00:00 0 6748 0.17 0.13 0.23 100 0.1 0.1
2018-02-24 07:00:00 0 6738 0.1 0.07 0.15 100 0 0
2018-02-24 08:00:00 0 6728 0.08 0.05 0.12 100 0 0
2018-02-24 09:00:00 0 6786 0.26 0.15 0.37 100 0.2 0.1
2018-02-24 10:00:00 0 6796 0.55 0.42 0.59 100 0.4 0.4
2018-02-24 11:00:00 0 6942 0.71 0.56 0.91 100 0.6 0.5
2018-02-24 12:00:00 0.4 6932 0.93 0.84 1 100 0.8 0.8
2018-02-24 13:00:00 0.2 6894 0.97 0.83 1.03 100 0.9 0.8
2018-02-24 14:00:00 0.2 6904 0.69 0.64 0.78 100 0.6 0.6
2018-02-24 15:00:00 0.2 6884 0.52 0.32 0.7 100 0.4 0.3
2018-02-24 16:00:00 0 6826 0.16 -0.06 0.39 100 0.1 0
2018-02-24 17:00:00 0 6738 -0.21 -0.55 0.01 100 -0.1 -0.4
2018-02-24 18:00:00 0 6718 -0.81 -1 -0.55 100 -0.6 -0.9
2018-02-24 19:00:00 0 6708 -1.19 -1.42 -0.91 100 -1 -1.3
2018-02-24 20:00:00 0 6708 -1.87 -2.39 -1.44 100 -1.7 -2.2
2018-02-24 21:00:00 0 6708 -2.66 -3.02 -2.35 100 -2.5 -2.9
2018-02-24 22:00:00 0 6708 -3.16 -3.31 -3.02 100 -3 -3.2
2018-02-24 23:00:00 0 6708 -3.54 -3.79 -3.34 100 -3.4 -3.6
2018-02-25 00:00:00 0 6708 -3.75 -3.81 -3.72 100 -3.6 -3.7
2018-02-25 01:00:00 0 6698 -3.75 -3.8 -3.7 100 -3.6 -3.7
2018-02-25 02:00:00 0 6698 -3.84 -3.91 -3.77 100 -3.7 -3.8
2018-02-25 03:00:00 0 6698 -4.01 -4.08 -3.9 100 -3.8 -3.9
2018-02-25 04:00:00 0 6688 -4.21 -4.37 -4.1 99.7 -4.1 -4.4
2018-02-25 05:00:00 0 6698 -4.55 -4.76 -4.38 97.89 -4.7 -5.1
2018-02-25 06:00:00 0 6688 -4.96 -5.17 -4.78 99.85 -4.8 -5
2018-02-25 07:00:00 0 6698 -5.36 -5.6 -5.18 100 -5.2 -5.5
2018-02-25 08:00:00 0 6708 -5.68 -5.77 -5.49 100 -5.5 -5.6
2018-02-25 09:00:00 0 6952 -5.5 -5.59 -5.43 99.98 -5.3 -5.5
2018-02-25 10:00:00 0 7274 -5.44 -5.54 -5.36 99.79 -5.3 -5.7
2018-02-25 11:00:00 0 7274 -5.23 -5.39 -4.97 98.97 -5.2 -5.9
2018-02-25 12:00:00 0 7284 -4.68 -4.85 -4.36 98.42 -4.7 -5.2